sensor_id;sensor_type;location;lat;lon;timestamp;P1;durP1;ratioP1;P2;durP2;ratioP2
66437;SDS011;54537;47.972;11.662;2023-03-08T00:00:58;14.70;;;5.90;;
66437;SDS011;54537;47.972;11.662;2023-03-08T00:03:24;18.15;;;5.68;;
66437;SDS011;54537;47.972;11.662;2023-03-08T00:05:51;16.13;;;5.75;;
66437;SDS011;54537;47.972;11.662;2023-03-08T00:08:17;20.20;;;6.57;;
66437;SDS011;54537;47.972;11.662;2023-03-08T00:10:44;17.02;;;6.22;;
66437;SDS011;54537;47.972;11.662;2023-03-08T00:13:12;18.77;;;5.65;;
66437;SDS011;54537;47.972;11.662;2023-03-08T00:15:38;12.75;;;4.95;;
66437;SDS011;54537;47.972;11.662;2023-03-08T00:18:05;14.73;;;5.03;;
66437;SDS011;54537;47.972;11.662;2023-03-08T00:20:31;14.30;;;6.15;;
66437;SDS011;54537;47.972;11.662;2023-03-08T00:22:58;14.10;;;5.22;;
66437;SDS011;54537;47.972;11.662;2023-03-08T00:25:25;13.48;;;5.15;;
66437;SDS011;54537;47.972;11.662;2023-03-08T00:27:51;17.98;;;5.70;;
66437;SDS011;54537;47.972;11.662;2023-03-08T00:30:19;19.73;;;5.85;;
66437;SDS011;54537;47.972;11.662;2023-03-08T00:32:45;12.85;;;5.10;;
66437;SDS011;54537;47.972;11.662;2023-03-08T00:35:12;13.60;;;4.47;;
66437;SDS011;54537;47.972;11.662;2023-03-08T00:37:38;21.30;;;6.55;;
66437;SDS011;54537;47.972;11.662;2023-03-08T00:40:05;15.13;;;5.15;;
66437;SDS011;54537;47.972;11.662;2023-03-08T00:42:33;16.05;;;5.55;;
66437;SDS011;54537;47.972;11.662;2023-03-08T00:45:00;22.75;;;6.53;;
66437;SDS011;54537;47.972;11.662;2023-03-08T00:47:28;21.42;;;6.57;;
66437;SDS011;54537;47.972;11.662;2023-03-08T00:49:54;16.98;;;4.95;;
66437;SDS011;54537;47.972;11.662;2023-03-08T00:52:21;12.02;;;4.93;;
66437;SDS011;54537;47.972;11.662;2023-03-08T00:54:47;16.42;;;5.47;;
66437;SDS011;54537;47.972;11.662;2023-03-08T00:57:14;19.73;;;5.57;;
66437;SDS011;54537;47.972;11.662;2023-03-08T00:59:41;18.58;;;5.63;;
66437;SDS011;54537;47.972;11.662;2023-03-08T01:02:07;10.73;;;3.72;;
66437;SDS011;54537;47.972;11.662;2023-03-08T01:04:35;16.92;;;5.85;;
66437;SDS011;54537;47.972;11.662;2023-03-08T01:07:01;16.67;;;5.90;;
66437;SDS011;54537;47.972;11.662;2023-03-08T01:09:28;24.60;;;6.57;;
66437;SDS011;54537;47.972;11.662;2023-03-08T01:11:54;15.30;;;5.00;;
66437;SDS011;54537;47.972;11.662;2023-03-08T01:14:21;18.55;;;6.10;;
66437;SDS011;54537;47.972;11.662;2023-03-08T01:16:47;17.90;;;5.88;;
66437;SDS011;54537;47.972;11.662;2023-03-08T01:19:14;13.63;;;4.38;;
66437;SDS011;54537;47.972;11.662;2023-03-08T01:21:42;16.02;;;5.93;;
66437;SDS011;54537;47.972;11.662;2023-03-08T01:24:08;10.90;;;5.10;;
66437;SDS011;54537;47.972;11.662;2023-03-08T01:26:35;20.17;;;6.63;;
66437;SDS011;54537;47.972;11.662;2023-03-08T01:29:01;17.30;;;6.20;;
66437;SDS011;54537;47.972;11.662;2023-03-08T01:31:28;16.98;;;6.13;;
66437;SDS011;54537;47.972;11.662;2023-03-08T01:33:55;21.23;;;6.80;;
66437;SDS011;54537;47.972;11.662;2023-03-08T01:36:23;18.38;;;6.28;;
66437;SDS011;54537;47.972;11.662;2023-03-08T01:38:53;20.33;;;6.78;;
66437;SDS011;54537;47.972;11.662;2023-03-08T01:41:20;18.48;;;5.97;;
66437;SDS011;54537;47.972;11.662;2023-03-08T01:43:48;18.30;;;6.28;;
66437;SDS011;54537;47.972;11.662;2023-03-08T01:46:24;14.60;;;4.80;;
66437;SDS011;54537;47.972;11.662;2023-03-08T01:48:53;19.35;;;6.63;;
66437;SDS011;54537;47.972;11.662;2023-03-08T01:51:24;20.20;;;6.35;;
66437;SDS011;54537;47.972;11.662;2023-03-08T01:53:55;23.17;;;6.90;;
66437;SDS011;54537;47.972;11.662;2023-03-08T01:56:22;17.45;;;6.35;;
66437;SDS011;54537;47.972;11.662;2023-03-08T01:58:50;15.10;;;5.18;;
66437;SDS011;54537;47.972;11.662;2023-03-08T02:01:17;17.45;;;6.57;;
66437;SDS011;54537;47.972;11.662;2023-03-08T02:03:45;19.00;;;6.47;;
66437;SDS011;54537;47.972;11.662;2023-03-08T02:06:12;21.25;;;7.53;;
66437;SDS011;54537;47.972;11.662;2023-03-08T02:08:40;17.58;;;6.15;;
66437;SDS011;54537;47.972;11.662;2023-03-08T02:11:08;19.10;;;6.03;;
66437;SDS011;54537;47.972;11.662;2023-03-08T02:13:35;19.50;;;6.28;;
66437;SDS011;54537;47.972;11.662;2023-03-08T02:16:02;20.35;;;6.63;;
66437;SDS011;54537;47.972;11.662;2023-03-08T02:18:30;16.33;;;6.15;;
66437;SDS011;54537;47.972;11.662;2023-03-08T02:20:56;17.08;;;6.35;;
66437;SDS011;54537;47.972;11.662;2023-03-08T02:23:24;14.15;;;5.88;;
66437;SDS011;54537;47.972;11.662;2023-03-08T02:25:51;26.67;;;6.35;;
66437;SDS011;54537;47.972;11.662;2023-03-08T02:28:19;21.63;;;7.03;;
66437;SDS011;54537;47.972;11.662;2023-03-08T02:30:47;20.00;;;6.93;;
66437;SDS011;54537;47.972;11.662;2023-03-08T02:33:13;24.08;;;7.20;;
66437;SDS011;54537;47.972;11.662;2023-03-08T02:35:40;21.90;;;7.65;;
66437;SDS011;54537;47.972;11.662;2023-03-08T02:38:08;22.75;;;7.70;;
66437;SDS011;54537;47.972;11.662;2023-03-08T02:40:36;26.70;;;8.07;;
66437;SDS011;54537;47.972;11.662;2023-03-08T02:43:03;31.85;;;9.63;;
66437;SDS011;54537;47.972;11.662;2023-03-08T02:45:30;27.85;;;9.38;;
66437;SDS011;54537;47.972;11.662;2023-03-08T02:47:58;28.88;;;9.55;;
66437;SDS011;54537;47.972;11.662;2023-03-08T02:50:24;34.47;;;9.52;;
66437;SDS011;54537;47.972;11.662;2023-03-08T02:52:51;34.10;;;10.40;;
66437;SDS011;54537;47.972;11.662;2023-03-08T02:55:17;36.05;;;10.90;;
66437;SDS011;54537;47.972;11.662;2023-03-08T02:57:45;37.60;;;11.95;;
66437;SDS011;54537;47.972;11.662;2023-03-08T03:00:12;36.63;;;11.38;;
66437;SDS011;54537;47.972;11.662;2023-03-08T03:02:38;36.55;;;11.50;;
66437;SDS011;54537;47.972;11.662;2023-03-08T03:05:06;34.65;;;11.18;;
66437;SDS011;54537;47.972;11.662;2023-03-08T03:07:35;32.40;;;9.65;;
66437;SDS011;54537;47.972;11.662;2023-03-08T03:10:02;32.78;;;10.77;;
66437;SDS011;54537;47.972;11.662;2023-03-08T03:12:28;39.08;;;11.40;;
66437;SDS011;54537;47.972;11.662;2023-03-08T03:14:56;32.00;;;11.77;;
66437;SDS011;54537;47.972;11.662;2023-03-08T03:17:23;38.72;;;12.77;;
66437;SDS011;54537;47.972;11.662;2023-03-08T03:19:49;37.83;;;12.77;;
66437;SDS011;54537;47.972;11.662;2023-03-08T03:22:16;35.65;;;12.23;;
66437;SDS011;54537;47.972;11.662;2023-03-08T03:24:42;38.85;;;13.07;;
66437;SDS011;54537;47.972;11.662;2023-03-08T03:27:09;35.28;;;11.82;;
66437;SDS011;54537;47.972;11.662;2023-03-08T03:29:35;36.88;;;12.25;;
66437;SDS011;54537;47.972;11.662;2023-03-08T03:32:04;35.95;;;12.00;;
66437;SDS011;54537;47.972;11.662;2023-03-08T03:34:30;36.42;;;12.40;;
66437;SDS011;54537;47.972;11.662;2023-03-08T03:36:57;33.67;;;12.38;;
66437;SDS011;54537;47.972;11.662;2023-03-08T03:39:23;33.90;;;12.48;;
66437;SDS011;54537;47.972;11.662;2023-03-08T03:41:50;29.80;;;12.18;;
66437;SDS011;54537;47.972;11.662;2023-03-08T03:44:16;34.67;;;11.20;;
66437;SDS011;54537;47.972;11.662;2023-03-08T03:46:43;34.72;;;11.13;;
66437;SDS011;54537;47.972;11.662;2023-03-08T03:49:11;29.35;;;10.95;;
66437;SDS011;54537;47.972;11.662;2023-03-08T03:51:37;35.47;;;10.50;;
66437;SDS011;54537;47.972;11.662;2023-03-08T03:54:04;27.17;;;8.82;;
66437;SDS011;54537;47.972;11.662;2023-03-08T03:56:30;26.98;;;9.30;;
66437;SDS011;54537;47.972;11.662;2023-03-08T03:58:57;28.45;;;10.35;;
66437;SDS011;54537;47.972;11.662;2023-03-08T04:01:24;24.98;;;8.10;;
66437;SDS011;54537;47.972;11.662;2023-03-08T04:03:52;20.58;;;7.45;;
66437;SDS011;54537;47.972;11.662;2023-03-08T04:06:21;23.52;;;7.35;;
66437;SDS011;54537;47.972;11.662;2023-03-08T04:08:49;20.60;;;7.75;;
66437;SDS011;54537;47.972;11.662;2023-03-08T04:11:17;22.98;;;7.88;;
66437;SDS011;54537;47.972;11.662;2023-03-08T04:13:45;20.00;;;7.47;;
66437;SDS011;54537;47.972;11.662;2023-03-08T04:16:12;25.23;;;7.72;;
66437;SDS011;54537;47.972;11.662;2023-03-08T04:18:39;22.13;;;7.82;;
66437;SDS011;54537;47.972;11.662;2023-03-08T04:21:06;23.35;;;8.30;;
66437;SDS011;54537;47.972;11.662;2023-03-08T04:23:34;22.85;;;8.43;;
66437;SDS011;54537;47.972;11.662;2023-03-08T04:26:02;25.02;;;8.68;;
66437;SDS011;54537;47.972;11.662;2023-03-08T04:28:29;22.20;;;8.40;;
66437;SDS011;54537;47.972;11.662;2023-03-08T04:30:58;27.38;;;8.15;;
66437;SDS011;54537;47.972;11.662;2023-03-08T04:33:24;27.67;;;8.02;;
66437;SDS011;54537;47.972;11.662;2023-03-08T04:35:51;23.75;;;8.40;;
66437;SDS011;54537;47.972;11.662;2023-03-08T04:38:18;27.10;;;8.23;;
66437;SDS011;54537;47.972;11.662;2023-03-08T04:40:49;25.58;;;8.15;;
66437;SDS011;54537;47.972;11.662;2023-03-08T04:43:36;25.80;;;8.50;;
66437;SDS011;54537;47.972;11.662;2023-03-08T04:46:03;27.20;;;8.65;;
66437;SDS011;54537;47.972;11.662;2023-03-08T04:48:30;26.25;;;8.20;;
66437;SDS011;54537;47.972;11.662;2023-03-08T04:50:58;28.60;;;9.48;;
66437;SDS011;54537;47.972;11.662;2023-03-08T04:53:25;25.20;;;9.23;;
66437;SDS011;54537;47.972;11.662;2023-03-08T04:55:54;29.23;;;9.80;;
66437;SDS011;54537;47.972;11.662;2023-03-08T04:58:21;26.35;;;8.75;;
66437;SDS011;54537;47.972;11.662;2023-03-08T05:00:47;27.98;;;9.88;;
66437;SDS011;54537;47.972;11.662;2023-03-08T05:03:14;26.40;;;8.63;;
66437;SDS011;54537;47.972;11.662;2023-03-08T05:05:43;26.10;;;9.55;;
66437;SDS011;54537;47.972;11.662;2023-03-08T05:08:10;23.35;;;9.07;;
66437;SDS011;54537;47.972;11.662;2023-03-08T05:10:37;26.95;;;9.30;;
66437;SDS011;54537;47.972;11.662;2023-03-08T05:13:05;23.50;;;8.63;;
66437;SDS011;54537;47.972;11.662;2023-03-08T05:15:31;28.75;;;8.88;;
66437;SDS011;54537;47.972;11.662;2023-03-08T05:17:58;26.23;;;8.60;;
66437;SDS011;54537;47.972;11.662;2023-03-08T05:20:24;25.70;;;8.63;;
66437;SDS011;54537;47.972;11.662;2023-03-08T05:22:51;27.80;;;8.50;;
66437;SDS011;54537;47.972;11.662;2023-03-08T05:25:18;22.13;;;8.35;;
66437;SDS011;54537;47.972;11.662;2023-03-08T05:27:44;28.10;;;9.32;;
66437;SDS011;54537;47.972;11.662;2023-03-08T05:30:12;26.77;;;8.32;;
66437;SDS011;54537;47.972;11.662;2023-03-08T05:32:39;24.90;;;8.23;;
66437;SDS011;54537;47.972;11.662;2023-03-08T05:35:06;23.75;;;8.00;;
66437;SDS011;54537;47.972;11.662;2023-03-08T05:37:33;27.50;;;8.95;;
66437;SDS011;54537;47.972;11.662;2023-03-08T05:39:59;26.35;;;9.23;;
66437;SDS011;54537;47.972;11.662;2023-03-08T05:42:26;24.40;;;8.73;;
66437;SDS011;54537;47.972;11.662;2023-03-08T05:44:53;28.58;;;9.00;;
66437;SDS011;54537;47.972;11.662;2023-03-08T05:47:21;21.20;;;7.40;;
66437;SDS011;54537;47.972;11.662;2023-03-08T05:49:47;23.52;;;8.48;;
66437;SDS011;54537;47.972;11.662;2023-03-08T05:52:14;28.05;;;8.50;;
66437;SDS011;54537;47.972;11.662;2023-03-08T05:54:40;23.92;;;8.55;;
66437;SDS011;54537;47.972;11.662;2023-03-08T05:57:07;20.92;;;8.00;;
66437;SDS011;54537;47.972;11.662;2023-03-08T05:59:33;22.20;;;7.88;;
66437;SDS011;54537;47.972;11.662;2023-03-08T06:02:00;26.98;;;8.85;;
66437;SDS011;54537;47.972;11.662;2023-03-08T06:04:27;25.08;;;8.70;;
66437;SDS011;54537;47.972;11.662;2023-03-08T06:06:54;25.33;;;8.40;;
66437;SDS011;54537;47.972;11.662;2023-03-08T06:09:20;27.55;;;8.55;;
66437;SDS011;54537;47.972;11.662;2023-03-08T06:11:47;24.92;;;9.07;;
66437;SDS011;54537;47.972;11.662;2023-03-08T06:14:13;26.98;;;8.70;;
66437;SDS011;54537;47.972;11.662;2023-03-08T06:16:40;26.60;;;9.50;;
66437;SDS011;54537;47.972;11.662;2023-03-08T06:19:06;25.33;;;8.57;;
66437;SDS011;54537;47.972;11.662;2023-03-08T06:21:34;26.65;;;7.75;;
66437;SDS011;54537;47.972;11.662;2023-03-08T06:24:00;24.52;;;9.25;;
66437;SDS011;54537;47.972;11.662;2023-03-08T06:26:27;26.70;;;8.75;;
66437;SDS011;54537;47.972;11.662;2023-03-08T06:28:54;24.02;;;8.02;;
66437;SDS011;54537;47.972;11.662;2023-03-08T06:31:20;24.58;;;8.30;;
66437;SDS011;54537;47.972;11.662;2023-03-08T06:33:47;22.45;;;8.68;;
66437;SDS011;54537;47.972;11.662;2023-03-08T06:36:14;25.13;;;8.52;;
66437;SDS011;54537;47.972;11.662;2023-03-08T06:38:43;22.35;;;8.45;;
66437;SDS011;54537;47.972;11.662;2023-03-08T06:41:10;25.63;;;8.77;;
66437;SDS011;54537;47.972;11.662;2023-03-08T06:43:37;21.67;;;8.25;;
66437;SDS011;54537;47.972;11.662;2023-03-08T06:46:04;24.52;;;7.70;;
66437;SDS011;54537;47.972;11.662;2023-03-08T06:48:31;24.25;;;8.77;;
66437;SDS011;54537;47.972;11.662;2023-03-08T06:50:58;24.25;;;7.32;;
66437;SDS011;54537;47.972;11.662;2023-03-08T06:53:25;22.90;;;7.90;;
66437;SDS011;54537;47.972;11.662;2023-03-08T06:56:01;24.23;;;7.93;;
66437;SDS011;54537;47.972;11.662;2023-03-08T06:58:27;24.40;;;8.00;;
66437;SDS011;54537;47.972;11.662;2023-03-08T07:00:54;23.55;;;8.70;;
66437;SDS011;54537;47.972;11.662;2023-03-08T07:03:20;23.60;;;7.75;;
66437;SDS011;54537;47.972;11.662;2023-03-08T07:05:47;23.92;;;8.05;;
66437;SDS011;54537;47.972;11.662;2023-03-08T07:08:13;25.13;;;8.25;;
66437;SDS011;54537;47.972;11.662;2023-03-08T07:10:40;24.08;;;8.60;;
66437;SDS011;54537;47.972;11.662;2023-03-08T07:13:08;26.88;;;8.77;;
66437;SDS011;54537;47.972;11.662;2023-03-08T07:15:37;25.25;;;8.40;;
66437;SDS011;54537;47.972;11.662;2023-03-08T07:18:04;22.75;;;7.97;;
66437;SDS011;54537;47.972;11.662;2023-03-08T07:20:31;24.20;;;8.55;;
66437;SDS011;54537;47.972;11.662;2023-03-08T07:22:57;20.50;;;8.23;;
66437;SDS011;54537;47.972;11.662;2023-03-08T07:25:26;27.55;;;9.00;;
66437;SDS011;54537;47.972;11.662;2023-03-08T07:27:53;31.15;;;8.27;;
66437;SDS011;54537;47.972;11.662;2023-03-08T07:30:21;23.80;;;7.88;;
66437;SDS011;54537;47.972;11.662;2023-03-08T07:32:47;28.08;;;8.90;;
66437;SDS011;54537;47.972;11.662;2023-03-08T07:35:14;21.95;;;7.70;;
66437;SDS011;54537;47.972;11.662;2023-03-08T07:37:42;26.42;;;9.13;;
66437;SDS011;54537;47.972;11.662;2023-03-08T07:40:10;27.73;;;7.70;;
66437;SDS011;54537;47.972;11.662;2023-03-08T07:42:37;25.58;;;8.18;;
66437;SDS011;54537;47.972;11.662;2023-03-08T07:45:04;27.25;;;9.15;;
66437;SDS011;54537;47.972;11.662;2023-03-08T07:47:32;20.70;;;7.78;;
66437;SDS011;54537;47.972;11.662;2023-03-08T07:49:59;22.23;;;8.23;;
66437;SDS011;54537;47.972;11.662;2023-03-08T07:52:25;26.10;;;7.78;;
66437;SDS011;54537;47.972;11.662;2023-03-08T07:54:52;23.33;;;8.02;;
66437;SDS011;54537;47.972;11.662;2023-03-08T07:57:19;25.58;;;8.60;;
66437;SDS011;54537;47.972;11.662;2023-03-08T07:59:46;24.48;;;8.05;;
66437;SDS011;54537;47.972;11.662;2023-03-08T08:02:12;24.27;;;8.48;;
66437;SDS011;54537;47.972;11.662;2023-03-08T08:04:40;22.83;;;8.32;;
66437;SDS011;54537;47.972;11.662;2023-03-08T08:07:10;21.58;;;7.72;;
66437;SDS011;54537;47.972;11.662;2023-03-08T08:09:37;24.60;;;8.50;;
66437;SDS011;54537;47.972;11.662;2023-03-08T08:12:04;23.30;;;8.05;;
66437;SDS011;54537;47.972;11.662;2023-03-08T08:14:31;19.88;;;8.02;;
66437;SDS011;54537;47.972;11.662;2023-03-08T08:16:57;20.63;;;7.63;;
66437;SDS011;54537;47.972;11.662;2023-03-08T08:19:24;20.52;;;8.23;;
66437;SDS011;54537;47.972;11.662;2023-03-08T08:21:51;21.70;;;7.68;;
66437;SDS011;54537;47.972;11.662;2023-03-08T08:24:18;18.30;;;6.90;;
66437;SDS011;54537;47.972;11.662;2023-03-08T08:26:44;22.40;;;7.70;;
66437;SDS011;54537;47.972;11.662;2023-03-08T08:29:11;21.33;;;7.25;;
66437;SDS011;54537;47.972;11.662;2023-03-08T08:31:38;19.15;;;7.32;;
66437;SDS011;54537;47.972;11.662;2023-03-08T08:34:04;20.42;;;7.47;;
66437;SDS011;54537;47.972;11.662;2023-03-08T08:36:31;18.58;;;7.32;;
66437;SDS011;54537;47.972;11.662;2023-03-08T08:38:58;21.92;;;8.30;;
66437;SDS011;54537;47.972;11.662;2023-03-08T08:41:25;19.35;;;7.63;;
66437;SDS011;54537;47.972;11.662;2023-03-08T08:43:52;21.83;;;7.90;;
66437;SDS011;54537;47.972;11.662;2023-03-08T08:46:20;20.70;;;8.00;;
66437;SDS011;54537;47.972;11.662;2023-03-08T08:48:47;19.85;;;7.22;;
66437;SDS011;54537;47.972;11.662;2023-03-08T08:51:13;21.40;;;8.30;;
66437;SDS011;54537;47.972;11.662;2023-03-08T08:53:40;17.05;;;7.03;;
66437;SDS011;54537;47.972;11.662;2023-03-08T08:56:10;22.42;;;8.68;;
66437;SDS011;54537;47.972;11.662;2023-03-08T08:58:37;20.63;;;8.32;;
66437;SDS011;54537;47.972;11.662;2023-03-08T09:01:04;20.45;;;8.27;;
66437;SDS011;54537;47.972;11.662;2023-03-08T09:03:37;20.25;;;8.10;;
66437;SDS011;54537;47.972;11.662;2023-03-08T09:06:03;24.25;;;7.97;;
66437;SDS011;54537;47.972;11.662;2023-03-08T09:08:30;20.33;;;7.80;;
66437;SDS011;54537;47.972;11.662;2023-03-08T09:11:00;24.55;;;8.30;;
66437;SDS011;54537;47.972;11.662;2023-03-08T09:13:29;20.88;;;8.30;;
66437;SDS011;54537;47.972;11.662;2023-03-08T09:15:56;24.52;;;8.60;;
66437;SDS011;54537;47.972;11.662;2023-03-08T09:18:22;22.38;;;8.27;;
66437;SDS011;54537;47.972;11.662;2023-03-08T09:20:49;22.63;;;8.48;;
66437;SDS011;54537;47.972;11.662;2023-03-08T09:23:15;23.02;;;8.50;;
66437;SDS011;54537;47.972;11.662;2023-03-08T09:25:42;25.77;;;9.15;;
66437;SDS011;54537;47.972;11.662;2023-03-08T09:28:09;25.48;;;8.60;;
66437;SDS011;54537;47.972;11.662;2023-03-08T09:30:37;27.58;;;8.77;;
66437;SDS011;54537;47.972;11.662;2023-03-08T09:33:04;25.05;;;9.18;;
66437;SDS011;54537;47.972;11.662;2023-03-08T09:35:30;26.13;;;9.52;;
66437;SDS011;54537;47.972;11.662;2023-03-08T09:37:57;20.10;;;8.43;;
66437;SDS011;54537;47.972;11.662;2023-03-08T09:40:25;23.45;;;8.23;;
66437;SDS011;54537;47.972;11.662;2023-03-08T09:42:52;22.02;;;8.65;;
66437;SDS011;54537;47.972;11.662;2023-03-08T09:45:22;24.75;;;9.05;;
66437;SDS011;54537;47.972;11.662;2023-03-08T09:47:52;25.55;;;9.48;;
66437;SDS011;54537;47.972;11.662;2023-03-08T09:50:30;24.20;;;8.65;;
66437;SDS011;54537;47.972;11.662;2023-03-08T09:52:59;23.40;;;8.15;;
66437;SDS011;54537;47.972;11.662;2023-03-08T09:55:30;26.33;;;8.57;;
66437;SDS011;54537;47.972;11.662;2023-03-08T09:57:59;21.50;;;8.57;;
66437;SDS011;54537;47.972;11.662;2023-03-08T10:00:29;21.85;;;8.90;;
66437;SDS011;54537;47.972;11.662;2023-03-08T10:05:44;23.48;;;9.30;;
66437;SDS011;54537;47.972;11.662;2023-03-08T10:08:15;23.08;;;8.55;;
66437;SDS011;54537;47.972;11.662;2023-03-08T10:10:47;27.60;;;9.15;;
66437;SDS011;54537;47.972;11.662;2023-03-08T10:13:29;25.05;;;9.13;;
66437;SDS011;54537;47.972;11.662;2023-03-08T10:16:03;21.25;;;9.02;;
66437;SDS011;54537;47.972;11.662;2023-03-08T10:18:34;22.58;;;8.18;;
66437;SDS011;54537;47.972;11.662;2023-03-08T10:21:04;25.45;;;9.48;;
66437;SDS011;54537;47.972;11.662;2023-03-08T10:23:32;22.50;;;8.45;;
66437;SDS011;54537;47.972;11.662;2023-03-08T10:25:58;24.90;;;8.95;;
66437;SDS011;54537;47.972;11.662;2023-03-08T10:28:26;24.50;;;9.32;;
66437;SDS011;54537;47.972;11.662;2023-03-08T10:30:54;24.13;;;9.02;;
66437;SDS011;54537;47.972;11.662;2023-03-08T10:33:22;21.45;;;8.52;;
66437;SDS011;54537;47.972;11.662;2023-03-08T10:35:56;23.92;;;8.90;;
66437;SDS011;54537;47.972;11.662;2023-03-08T10:38:25;23.02;;;8.88;;
66437;SDS011;54537;47.972;11.662;2023-03-08T10:40:57;21.98;;;8.48;;
66437;SDS011;54537;47.972;11.662;2023-03-08T10:43:25;23.00;;;8.70;;
66437;SDS011;54537;47.972;11.662;2023-03-08T10:45:57;23.73;;;8.98;;
66437;SDS011;54537;47.972;11.662;2023-03-08T10:48:24;28.75;;;9.63;;
66437;SDS011;54537;47.972;11.662;2023-03-08T10:50:58;19.75;;;7.90;;
66437;SDS011;54537;47.972;11.662;2023-03-08T10:53:25;22.52;;;9.27;;
66437;SDS011;54537;47.972;11.662;2023-03-08T10:55:53;27.52;;;9.30;;
66437;SDS011;54537;47.972;11.662;2023-03-08T10:58:27;24.33;;;8.88;;
66437;SDS011;54537;47.972;11.662;2023-03-08T11:00:59;22.30;;;9.02;;
66437;SDS011;54537;47.972;11.662;2023-03-08T11:03:27;22.65;;;8.82;;
66437;SDS011;54537;47.972;11.662;2023-03-08T11:05:54;28.25;;;8.90;;
66437;SDS011;54537;47.972;11.662;2023-03-08T11:08:25;23.05;;;8.18;;
66437;SDS011;54537;47.972;11.662;2023-03-08T11:13:41;23.75;;;9.23;;
66437;SDS011;54537;47.972;11.662;2023-03-08T11:16:17;26.00;;;8.73;;
66437;SDS011;54537;47.972;11.662;2023-03-08T11:19:13;24.17;;;8.77;;
66437;SDS011;54537;47.972;11.662;2023-03-08T11:21:47;23.15;;;8.35;;
66437;SDS011;54537;47.972;11.662;2023-03-08T11:24:24;21.80;;;8.18;;
66437;SDS011;54537;47.972;11.662;2023-03-08T11:27:00;25.85;;;9.35;;
66437;SDS011;54537;47.972;11.662;2023-03-08T11:29:33;22.77;;;8.70;;
66437;SDS011;54537;47.972;11.662;2023-03-08T11:32:07;27.42;;;9.73;;
66437;SDS011;54537;47.972;11.662;2023-03-08T11:37:37;23.75;;;9.40;;
66437;SDS011;54537;47.972;11.662;2023-03-08T11:40:20;19.92;;;7.78;;
66437;SDS011;54537;47.972;11.662;2023-03-08T11:42:52;19.10;;;7.43;;
66437;SDS011;54537;47.972;11.662;2023-03-08T11:45:22;19.45;;;7.40;;
66437;SDS011;54537;47.972;11.662;2023-03-08T11:47:55;19.85;;;7.22;;
66437;SDS011;54537;47.972;11.662;2023-03-08T11:50:27;16.52;;;6.13;;
66437;SDS011;54537;47.972;11.662;2023-03-08T11:53:00;20.60;;;7.70;;
66437;SDS011;54537;47.972;11.662;2023-03-08T11:55:44;21.50;;;8.25;;
66437;SDS011;54537;47.972;11.662;2023-03-08T11:58:16;20.70;;;7.75;;
66437;SDS011;54537;47.972;11.662;2023-03-08T12:00:47;26.30;;;7.88;;
66437;SDS011;54537;47.972;11.662;2023-03-08T12:03:16;21.00;;;8.15;;
66437;SDS011;54537;47.972;11.662;2023-03-08T12:05:46;25.02;;;8.13;;
66437;SDS011;54537;47.972;11.662;2023-03-08T12:08:16;26.90;;;9.25;;
66437;SDS011;54537;47.972;11.662;2023-03-08T12:10:47;24.58;;;9.45;;
66437;SDS011;54537;47.972;11.662;2023-03-08T12:15:44;26.27;;;9.02;;
66437;SDS011;54537;47.972;11.662;2023-03-08T12:18:13;24.05;;;9.25;;
66437;SDS011;54537;47.972;11.662;2023-03-08T12:20:42;24.08;;;8.68;;
66437;SDS011;54537;47.972;11.662;2023-03-08T12:23:12;26.10;;;9.07;;
66437;SDS011;54537;47.972;11.662;2023-03-08T12:25:46;30.27;;;9.27;;
66437;SDS011;54537;47.972;11.662;2023-03-08T12:28:15;23.40;;;9.35;;
66437;SDS011;54537;47.972;11.662;2023-03-08T12:30:48;19.88;;;8.00;;
66437;SDS011;54537;47.972;11.662;2023-03-08T12:33:23;24.52;;;8.88;;
66437;SDS011;54537;47.972;11.662;2023-03-08T12:35:52;23.58;;;8.27;;
66437;SDS011;54537;47.972;11.662;2023-03-08T12:41:18;26.83;;;9.65;;
66437;SDS011;54537;47.972;11.662;2023-03-08T12:43:48;22.60;;;9.77;;
66437;SDS011;54537;47.972;11.662;2023-03-08T12:46:23;22.77;;;8.75;;
66437;SDS011;54537;47.972;11.662;2023-03-08T12:48:50;21.33;;;7.88;;
66437;SDS011;54537;47.972;11.662;2023-03-08T12:51:19;19.92;;;8.77;;
66437;SDS011;54537;47.972;11.662;2023-03-08T12:53:54;20.60;;;7.82;;
66437;SDS011;54537;47.972;11.662;2023-03-08T12:56:24;25.50;;;8.68;;
66437;SDS011;54537;47.972;11.662;2023-03-08T12:58:53;20.45;;;8.68;;
66437;SDS011;54537;47.972;11.662;2023-03-08T13:01:34;22.10;;;7.68;;
66437;SDS011;54537;47.972;11.662;2023-03-08T13:04:02;19.33;;;7.75;;
66437;SDS011;54537;47.972;11.662;2023-03-08T13:06:35;13.02;;;5.28;;
66437;SDS011;54537;47.972;11.662;2023-03-08T13:09:14;15.55;;;5.68;;
66437;SDS011;54537;47.972;11.662;2023-03-08T13:11:46;14.77;;;5.13;;
66437;SDS011;54537;47.972;11.662;2023-03-08T13:14:24;11.98;;;4.93;;
66437;SDS011;54537;47.972;11.662;2023-03-08T13:16:52;13.07;;;4.07;;
66437;SDS011;54537;47.972;11.662;2023-03-08T13:19:20;10.85;;;3.55;;
66437;SDS011;54537;47.972;11.662;2023-03-08T13:21:52;11.30;;;3.55;;
66437;SDS011;54537;47.972;11.662;2023-03-08T13:24:33;9.90;;;3.67;;
66437;SDS011;54537;47.972;11.662;2023-03-08T13:27:09;11.65;;;4.00;;
66437;SDS011;54537;47.972;11.662;2023-03-08T13:29:42;9.23;;;3.25;;
66437;SDS011;54537;47.972;11.662;2023-03-08T13:32:10;11.20;;;3.95;;
66437;SDS011;54537;47.972;11.662;2023-03-08T13:34:38;8.63;;;3.40;;
66437;SDS011;54537;47.972;11.662;2023-03-08T13:37:17;9.88;;;3.63;;
66437;SDS011;54537;47.972;11.662;2023-03-08T13:39:49;7.57;;;2.83;;
66437;SDS011;54537;47.972;11.662;2023-03-08T13:42:18;9.45;;;2.50;;
66437;SDS011;54537;47.972;11.662;2023-03-08T13:44:48;3.95;;;1.48;;
66437;SDS011;54537;47.972;11.662;2023-03-08T13:47:18;6.13;;;1.50;;
66437;SDS011;54537;47.972;11.662;2023-03-08T13:49:47;3.40;;;1.00;;
66437;SDS011;54537;47.972;11.662;2023-03-08T13:52:16;2.58;;;0.95;;
66437;SDS011;54537;47.972;11.662;2023-03-08T13:54:44;2.22;;;1.00;;
66437;SDS011;54537;47.972;11.662;2023-03-08T13:57:16;1.63;;;1.02;;
66437;SDS011;54537;47.972;11.662;2023-03-08T13:59:46;1.33;;;0.85;;
66437;SDS011;54537;47.972;11.662;2023-03-08T14:02:18;2.35;;;1.40;;
66437;SDS011;54537;47.972;11.662;2023-03-08T14:04:46;5.40;;;1.50;;
66437;SDS011;54537;47.972;11.662;2023-03-08T14:07:17;1.40;;;0.80;;
66437;SDS011;54537;47.972;11.662;2023-03-08T14:09:47;0.50;;;0.50;;
66437;SDS011;54537;47.972;11.662;2023-03-08T14:12:14;2.05;;;0.80;;
66437;SDS011;54537;47.972;11.662;2023-03-08T14:14:45;2.15;;;0.70;;
66437;SDS011;54537;47.972;11.662;2023-03-08T14:17:16;6.90;;;0.60;;
66437;SDS011;54537;47.972;11.662;2023-03-08T14:22:12;1.42;;;0.70;;
66437;SDS011;54537;47.972;11.662;2023-03-08T14:24:40;0.90;;;0.45;;
66437;SDS011;54537;47.972;11.662;2023-03-08T14:27:23;0.50;;;0.50;;
66437;SDS011;54537;47.972;11.662;2023-03-08T14:30:01;0.47;;;0.43;;
66437;SDS011;54537;47.972;11.662;2023-03-08T14:32:30;0.40;;;0.40;;
66437;SDS011;54537;47.972;11.662;2023-03-08T14:35:03;2.78;;;0.63;;
66437;SDS011;54537;47.972;11.662;2023-03-08T14:37:32;4.13;;;0.50;;
66437;SDS011;54537;47.972;11.662;2023-03-08T14:40:13;0.90;;;0.63;;
66437;SDS011;54537;47.972;11.662;2023-03-08T14:45:18;3.60;;;0.70;;
66437;SDS011;54537;47.972;11.662;2023-03-08T14:47:48;4.18;;;0.60;;